createdAt,value
2017-10-10T00:00:51.503Z,7.87
2017-10-10T00:05:54.695Z,8.13
2017-10-10T00:10:57.910Z,8.90
2017-10-10T00:16:01.125Z,8.23
2017-10-10T00:21:04.337Z,9.00
2017-10-10T00:26:07.510Z,7.27
2017-10-10T00:31:10.731Z,7.10
2017-10-10T00:36:13.934Z,7.83
2017-10-10T00:41:17.130Z,7.87
2017-10-10T00:46:20.317Z,8.30
2017-10-10T00:51:24.275Z,7.70
2017-10-10T00:56:27.464Z,7.57
2017-10-10T01:01:30.625Z,7.77
2017-10-10T01:06:33.807Z,7.83
2017-10-10T01:11:36.998Z,7.53
2017-10-10T01:16:40.173Z,8.13
2017-10-10T01:21:44.122Z,8.00
2017-10-10T01:26:47.326Z,10.57
2017-10-10T01:31:50.534Z,9.43
2017-10-10T01:36:53.716Z,8.80
2017-10-10T01:41:57.665Z,9.30
2017-10-10T01:47:00.850Z,8.30
2017-10-10T01:52:04.804Z,7.50
2017-10-10T01:57:08.142Z,8.90
2017-10-10T02:02:11.316Z,9.43
2017-10-10T02:07:14.514Z,8.97
2017-10-10T02:12:17.713Z,9.10
2017-10-10T02:17:20.915Z,9.90
2017-10-10T02:22:24.136Z,8.80
2017-10-10T02:27:27.318Z,8.70
2017-10-10T02:32:31.283Z,8.70
2017-10-10T02:37:34.480Z,8.80
2017-10-10T02:42:37.673Z,9.03
2017-10-10T02:47:40.866Z,10.90
2017-10-10T02:52:44.071Z,11.47
2017-10-10T02:57:47.262Z,10.50
2017-10-10T03:02:51.255Z,11.37
2017-10-10T03:07:54.432Z,12.07
2017-10-10T03:12:57.640Z,11.20
2017-10-10T03:18:00.820Z,11.57
2017-10-10T03:23:04.770Z,11.67
2017-10-10T03:28:07.972Z,11.50
2017-10-10T03:33:11.157Z,12.53
2017-10-10T03:38:15.109Z,13.23
2017-10-10T03:43:19.165Z,12.70
2017-10-10T03:48:22.369Z,12.80
2017-10-10T03:53:25.576Z,14.30
2017-10-10T03:58:28.752Z,13.57
2017-10-10T04:03:31.940Z,15.10
2017-10-10T04:08:35.135Z,14.00
2017-10-10T04:13:39.173Z,14.53
2017-10-10T04:18:42.353Z,15.50
2017-10-10T04:23:46.318Z,15.17
2017-10-10T04:28:49.503Z,14.80
2017-10-10T04:33:53.471Z,15.67
2017-10-10T04:38:56.654Z,14.83
2017-10-10T04:44:00.018Z,15.00
2017-10-10T04:49:03.231Z,14.97
2017-10-10T04:54:06.409Z,18.80
2017-10-10T04:59:09.599Z,14.47
2017-10-10T05:04:12.803Z,14.10
2017-10-10T05:09:16.002Z,15.37
2017-10-10T05:14:19.171Z,14.47
2017-10-10T05:19:23.130Z,15.43
2017-10-10T05:24:26.333Z,16.20
2017-10-10T05:29:29.533Z,15.80
2017-10-10T05:34:33.461Z,17.37
2017-10-10T05:39:36.637Z,17.10
2017-10-10T05:44:40.619Z,17.77
2017-10-10T05:49:43.785Z,16.23
2017-10-10T05:54:46.996Z,17.20
2017-10-10T05:59:50.189Z,13.77
2017-10-10T06:04:54.169Z,16.80
2017-10-10T06:09:57.364Z,17.20
2017-10-10T06:15:00.552Z,17.63
2017-10-10T06:20:03.741Z,18.40
2017-10-10T06:25:07.000Z,19.00
2017-10-10T06:30:10.223Z,16.67
2017-10-10T06:35:13.429Z,17.30
2017-10-10T06:40:16.611Z,16.80
2017-10-10T06:45:19.902Z,17.00
2017-10-10T06:50:23.234Z,17.20
2017-10-10T06:55:26.477Z,18.70
2017-10-10T07:00:29.680Z,17.63
2017-10-10T07:05:33.720Z,19.70
2017-10-10T07:10:36.948Z,19.53
2017-10-10T07:15:40.168Z,21.10
2017-10-10T07:20:43.358Z,17.97
2017-10-10T07:25:46.581Z,19.57
2017-10-10T07:30:49.811Z,15.97
2017-10-10T07:35:52.999Z,19.90
2017-10-10T07:40:56.432Z,18.67
2017-10-10T07:45:59.664Z,19.00
2017-10-10T07:51:03.083Z,18.00
2017-10-10T07:56:07.073Z,17.20
2017-10-10T08:01:10.362Z,18.40
2017-10-10T08:06:13.563Z,18.37
2017-10-10T08:11:16.766Z,17.43
2017-10-10T08:16:19.965Z,17.70
2017-10-10T08:21:23.171Z,16.63
2017-10-10T08:26:26.385Z,17.23
2017-10-10T08:31:29.623Z,16.70
2017-10-10T08:36:32.928Z,17.07
2017-10-10T08:41:36.337Z,16.90
2017-10-10T08:46:39.562Z,16.67
2017-10-10T08:51:42.753Z,16.63
2017-10-10T08:56:45.958Z,17.03
2017-10-10T09:01:49.157Z,16.52
2017-10-10T09:06:52.355Z,17.30
2017-10-10T09:11:55.566Z,17.97
2017-10-10T09:16:58.778Z,16.03
2017-10-10T09:22:01.980Z,17.10
2017-10-10T09:27:05.182Z,15.23
2017-10-10T09:32:08.395Z,16.13
2017-10-10T09:37:11.614Z,16.20
2017-10-10T09:42:14.803Z,15.53
2017-10-10T09:47:18.060Z,14.57
2017-10-10T09:52:22.032Z,16.10
2017-10-10T09:57:25.235Z,16.43
2017-10-10T10:02:28.462Z,14.33
2017-10-10T10:07:31.706Z,15.33
2017-10-10T10:12:34.925Z,14.13
2017-10-10T10:17:38.112Z,14.27
2017-10-10T10:22:42.086Z,14.20
2017-10-10T10:27:45.324Z,14.97
2017-10-10T10:32:48.560Z,15.60
2017-10-10T10:37:52.522Z,13.20
2017-10-10T10:42:55.711Z,13.40
2017-10-10T10:47:58.915Z,12.30
2017-10-10T10:53:02.310Z,13.23
2017-10-10T10:58:07.662Z,14.13
2017-10-10T11:03:11.627Z,9.93
2017-10-10T11:08:14.815Z,9.07
2017-10-10T11:13:18.020Z,9.87
2017-10-10T11:18:21.507Z,8.40
2017-10-10T11:23:25.494Z,8.40
2017-10-10T11:28:28.701Z,9.30
2017-10-10T11:33:31.929Z,7.80
2017-10-10T11:38:35.124Z,7.53
2017-10-10T11:43:38.319Z,8.20
2017-10-10T11:48:41.749Z,8.07
2017-10-10T11:53:44.952Z,8.37
2017-10-10T11:58:48.347Z,8.10
2017-10-10T12:03:51.581Z,8.83
2017-10-10T12:08:54.800Z,8.60
2017-10-10T12:13:58.762Z,9.43
2017-10-10T12:19:02.023Z,9.70
2017-10-10T12:24:05.227Z,8.87
2017-10-10T12:29:09.192Z,9.13
2017-10-10T12:34:12.476Z,8.80
2017-10-10T12:39:16.420Z,6.40
2017-10-10T12:44:19.626Z,6.33
2017-10-10T12:49:22.806Z,6.80
2017-10-10T12:54:26.781Z,7.37
2017-10-10T12:59:30.113Z,5.70
2017-10-10T13:04:33.293Z,4.70
2017-10-10T13:09:36.480Z,5.30
2017-10-10T13:14:39.697Z,4.57
2017-10-10T13:19:42.873Z,4.80
2017-10-10T13:24:46.068Z,4.40
2017-10-10T13:29:50.008Z,4.40
2017-10-10T13:34:53.210Z,5.50
2017-10-10T13:39:56.405Z,5.73
2017-10-10T13:45:00.394Z,6.50
2017-10-10T13:50:03.574Z,6.40
2017-10-10T13:55:06.853Z,6.40
2017-10-10T14:00:10.837Z,7.00
2017-10-10T14:05:14.163Z,9.33
2017-10-10T14:10:17.370Z,8.57
2017-10-10T14:15:20.579Z,10.30
2017-10-10T14:20:23.770Z,7.03
2017-10-10T14:25:26.960Z,7.30
2017-10-10T14:30:30.180Z,5.70
2017-10-10T14:35:33.376Z,6.03
2017-10-10T14:40:36.583Z,6.63
2017-10-10T14:45:39.808Z,6.40
2017-10-10T14:50:43.027Z,7.90
2017-10-10T14:55:46.425Z,7.00
2017-10-10T15:00:49.611Z,7.70
2017-10-10T15:05:52.874Z,7.57
2017-10-10T15:10:56.840Z,6.00
2017-10-10T15:16:00.006Z,7.70
2017-10-10T15:21:03.192Z,8.80
2017-10-10T15:26:07.161Z,7.90
2017-10-10T15:31:10.567Z,8.10
2017-10-10T15:36:13.754Z,8.47
2017-10-10T15:41:16.966Z,8.50
2017-10-10T15:46:20.219Z,8.27
2017-10-10T15:51:23.413Z,8.30
2017-10-10T15:56:26.606Z,8.23
2017-10-10T16:01:29.794Z,7.80
2017-10-10T16:06:33.022Z,7.63
2017-10-10T16:11:36.198Z,8.90
2017-10-10T16:16:40.178Z,6.77
2017-10-10T16:21:44.366Z,7.10
2017-10-10T16:26:47.577Z,8.60
2017-10-10T16:31:50.775Z,6.90
2017-10-10T16:36:53.968Z,6.77
2017-10-10T16:41:58.014Z,7.13
2017-10-10T16:47:01.295Z,8.53
2017-10-10T16:52:04.670Z,17.40
2017-10-10T16:57:07.862Z,7.27
2017-10-10T17:02:11.071Z,8.77
2017-10-10T17:07:14.290Z,8.27
2017-10-10T17:12:17.491Z,7.57
2017-10-10T17:17:20.717Z,7.00
2017-10-10T17:22:23.902Z,8.37
2017-10-10T17:27:27.131Z,6.77
2017-10-10T17:32:30.334Z,8.53
2017-10-10T17:37:33.550Z,9.27
2017-10-10T17:42:37.508Z,10.00
2017-10-10T17:47:41.477Z,10.50
2017-10-10T17:52:45.577Z,11.40
2017-10-10T17:57:48.806Z,10.30
2017-10-10T18:02:52.021Z,11.40
2017-10-10T18:07:55.241Z,9.83
2017-10-10T18:12:58.484Z,10.37
2017-10-10T18:18:02.431Z,10.90
2017-10-10T18:23:05.673Z,11.43
2017-10-10T18:28:08.888Z,9.17
2017-10-10T18:33:12.087Z,8.60
2017-10-10T18:38:15.339Z,9.40
2017-10-10T18:43:18.550Z,8.83
2017-10-10T18:48:22.675Z,9.80
2017-10-10T18:53:25.891Z,10.50
2017-10-10T18:58:29.117Z,10.33
2017-10-10T19:03:32.332Z,10.20
2017-10-10T19:08:35.548Z,10.03
2017-10-10T19:13:38.774Z,14.60
2017-10-10T19:18:41.987Z,11.37
2017-10-10T19:23:45.183Z,12.27
2017-10-10T19:28:48.407Z,10.20
2017-10-10T19:33:51.626Z,11.90
2017-10-10T19:38:54.831Z,11.43
2017-10-10T19:43:58.802Z,11.47
2017-10-10T19:49:02.010Z,12.03
2017-10-10T19:54:05.181Z,11.20
2017-10-10T19:59:09.151Z,11.93
2017-10-10T20:04:12.392Z,11.90
2017-10-10T20:09:16.379Z,11.37
2017-10-10T20:14:20.406Z,12.77
2017-10-10T20:19:23.583Z,13.40
2017-10-10T20:24:26.865Z,12.10
2017-10-10T20:29:30.836Z,11.93
2017-10-10T20:34:34.093Z,12.37
2017-10-10T20:39:37.282Z,11.68
2017-10-10T20:44:40.493Z,12.27
2017-10-10T20:49:43.726Z,12.37
2017-10-10T20:54:47.726Z,12.43
2017-10-10T20:59:51.091Z,13.33
2017-10-10T21:04:54.332Z,13.73
2017-10-10T21:09:57.530Z,12.33
2017-10-10T21:15:00.726Z,13.17
2017-10-10T21:20:03.965Z,14.10
2017-10-10T21:25:07.201Z,12.93
2017-10-10T21:30:11.126Z,12.67
2017-10-10T21:35:14.310Z,14.10
2017-10-10T21:40:18.293Z,13.50
2017-10-10T21:45:21.521Z,13.73
2017-10-10T21:50:24.698Z,13.73
2017-10-10T21:55:27.905Z,13.87
2017-10-10T22:00:31.111Z,14.13
2017-10-10T22:05:34.326Z,14.60
2017-10-10T22:10:37.516Z,14.23
2017-10-10T22:15:40.737Z,14.83
2017-10-10T22:20:43.936Z,15.17
2017-10-10T22:25:47.169Z,15.83
2017-10-10T22:30:50.370Z,15.15
2017-10-10T22:35:53.533Z,17.17
2017-10-10T22:40:56.729Z,16.47
2017-10-10T22:46:00.714Z,14.00
2017-10-10T22:51:03.917Z,15.50
2017-10-10T22:56:07.121Z,14.87
2017-10-10T23:01:11.194Z,14.07
2017-10-10T23:06:15.168Z,14.53
2017-10-10T23:11:18.362Z,13.40
2017-10-10T23:16:21.554Z,15.60
2017-10-10T23:21:24.776Z,15.30
2017-10-10T23:26:27.998Z,15.83
2017-10-10T23:31:31.206Z,14.60
2017-10-10T23:36:34.410Z,14.90
2017-10-10T23:41:37.614Z,13.37
2017-10-10T23:46:40.829Z,15.57
2017-10-10T23:51:44.036Z,15.07
2017-10-10T23:56:47.210Z,15.40
